sensor_id;sensor_type;location;lat;lon;timestamp;P1;durP1;ratioP1;P2;durP2;ratioP2
51184;SDS011;37248;59.350;18.050;2022-10-16T00:01:57;4.10;;;3.60;;
51184;SDS011;37248;59.350;18.050;2022-10-16T00:04:23;5.17;;;3.60;;
51184;SDS011;37248;59.350;18.050;2022-10-16T00:06:48;3.80;;;3.40;;
51184;SDS011;37248;59.350;18.050;2022-10-16T00:09:17;4.30;;;3.90;;
51184;SDS011;37248;59.350;18.050;2022-10-16T00:11:42;3.80;;;3.30;;
51184;SDS011;37248;59.350;18.050;2022-10-16T00:14:09;3.93;;;3.37;;
51184;SDS011;37248;59.350;18.050;2022-10-16T00:16:35;4.50;;;3.70;;
51184;SDS011;37248;59.350;18.050;2022-10-16T00:19:00;3.50;;;3.20;;
51184;SDS011;37248;59.350;18.050;2022-10-16T00:21:27;4.17;;;3.60;;
51184;SDS011;37248;59.350;18.050;2022-10-16T00:24:00;4.13;;;3.35;;
51184;SDS011;37248;59.350;18.050;2022-10-16T00:26:26;4.22;;;3.70;;
51184;SDS011;37248;59.350;18.050;2022-10-16T00:28:53;4.07;;;3.55;;
51184;SDS011;37248;59.350;18.050;2022-10-16T00:31:19;3.42;;;3.08;;
51184;SDS011;37248;59.350;18.050;2022-10-16T00:33:44;3.85;;;3.30;;
51184;SDS011;37248;59.350;18.050;2022-10-16T00:36:11;3.90;;;3.35;;
51184;SDS011;37248;59.350;18.050;2022-10-16T00:38:36;3.60;;;3.22;;
51184;SDS011;37248;59.350;18.050;2022-10-16T00:41:03;3.30;;;3.00;;
51184;SDS011;37248;59.350;18.050;2022-10-16T00:46:04;3.88;;;3.28;;
51184;SDS011;37248;59.350;18.050;2022-10-16T00:48:30;3.92;;;3.45;;
51184;SDS011;37248;59.350;18.050;2022-10-16T00:50:56;3.67;;;3.00;;
51184;SDS011;37248;59.350;18.050;2022-10-16T00:53:21;3.63;;;3.03;;
51184;SDS011;37248;59.350;18.050;2022-10-16T00:55:47;4.13;;;3.20;;
51184;SDS011;37248;59.350;18.050;2022-10-16T00:58:12;3.67;;;3.00;;
51184;SDS011;37248;59.350;18.050;2022-10-16T01:00:38;3.30;;;3.00;;
51184;SDS011;37248;59.350;18.050;2022-10-16T01:03:21;3.75;;;3.10;;
51184;SDS011;37248;59.350;18.050;2022-10-16T01:05:49;3.38;;;2.95;;
51184;SDS011;37248;59.350;18.050;2022-10-16T01:08:19;3.78;;;3.35;;
51184;SDS011;37248;59.350;18.050;2022-10-16T01:13:18;3.08;;;2.78;;
51184;SDS011;37248;59.350;18.050;2022-10-16T01:18:16;4.13;;;3.00;;
51184;SDS011;37248;59.350;18.050;2022-10-16T01:23:15;3.47;;;3.00;;
51184;SDS011;37248;59.350;18.050;2022-10-16T01:28:10;3.70;;;2.90;;
51184;SDS011;37248;59.350;18.050;2022-10-16T01:30:37;3.10;;;2.80;;
51184;SDS011;37248;59.350;18.050;2022-10-16T01:33:03;2.80;;;2.45;;
51184;SDS011;37248;59.350;18.050;2022-10-16T01:35:36;3.47;;;2.95;;
51184;SDS011;37248;59.350;18.050;2022-10-16T01:38:04;3.05;;;2.75;;
51184;SDS011;37248;59.350;18.050;2022-10-16T01:40:32;2.95;;;2.65;;
51184;SDS011;37248;59.350;18.050;2022-10-16T01:43:05;4.97;;;2.80;;
51184;SDS011;37248;59.350;18.050;2022-10-16T01:45:32;3.78;;;3.03;;
51184;SDS011;37248;59.350;18.050;2022-10-16T01:47:58;3.03;;;2.72;;
51184;SDS011;37248;59.350;18.050;2022-10-16T01:50:25;2.80;;;2.50;;
51184;SDS011;37248;59.350;18.050;2022-10-16T01:52:51;4.03;;;2.80;;
51184;SDS011;37248;59.350;18.050;2022-10-16T01:55:19;3.70;;;2.63;;
51184;SDS011;37248;59.350;18.050;2022-10-16T01:57:47;2.70;;;2.50;;
51184;SDS011;37248;59.350;18.050;2022-10-16T02:00:13;2.92;;;2.60;;
51184;SDS011;37248;59.350;18.050;2022-10-16T02:02:40;3.10;;;2.67;;
51184;SDS011;37248;59.350;18.050;2022-10-16T02:07:47;3.13;;;2.65;;
51184;SDS011;37248;59.350;18.050;2022-10-16T02:10:13;2.85;;;2.55;;
51184;SDS011;37248;59.350;18.050;2022-10-16T02:12:39;2.53;;;2.33;;
51184;SDS011;37248;59.350;18.050;2022-10-16T02:15:07;3.10;;;2.60;;
51184;SDS011;37248;59.350;18.050;2022-10-16T02:17:32;3.50;;;2.40;;
51184;SDS011;37248;59.350;18.050;2022-10-16T02:19:58;2.92;;;2.63;;
51184;SDS011;37248;59.350;18.050;2022-10-16T02:22:30;2.47;;;2.20;;
51184;SDS011;37248;59.350;18.050;2022-10-16T02:25:08;2.35;;;2.13;;
51184;SDS011;37248;59.350;18.050;2022-10-16T02:32:44;2.65;;;2.25;;
51184;SDS011;37248;59.350;18.050;2022-10-16T02:35:10;2.70;;;2.33;;
51184;SDS011;37248;59.350;18.050;2022-10-16T02:37:36;2.75;;;2.30;;
51184;SDS011;37248;59.350;18.050;2022-10-16T02:40:03;2.33;;;2.10;;
51184;SDS011;37248;59.350;18.050;2022-10-16T02:42:33;3.17;;;2.55;;
51184;SDS011;37248;59.350;18.050;2022-10-16T02:44:59;2.38;;;2.10;;
51184;SDS011;37248;59.350;18.050;2022-10-16T02:47:24;2.63;;;2.33;;
51184;SDS011;37248;59.350;18.050;2022-10-16T02:49:50;2.40;;;2.20;;
51184;SDS011;37248;59.350;18.050;2022-10-16T02:52:15;2.65;;;2.28;;
51184;SDS011;37248;59.350;18.050;2022-10-16T02:54:40;2.87;;;2.33;;
51184;SDS011;37248;59.350;18.050;2022-10-16T02:57:06;2.43;;;2.10;;
51184;SDS011;37248;59.350;18.050;2022-10-16T02:59:31;2.37;;;2.10;;
51184;SDS011;37248;59.350;18.050;2022-10-16T03:01:56;2.27;;;2.07;;
51184;SDS011;37248;59.350;18.050;2022-10-16T03:04:21;2.43;;;2.23;;
51184;SDS011;37248;59.350;18.050;2022-10-16T03:06:47;2.37;;;2.17;;
51184;SDS011;37248;59.350;18.050;2022-10-16T03:09:12;2.07;;;1.83;;
51184;SDS011;37248;59.350;18.050;2022-10-16T03:11:38;2.20;;;2.00;;
51184;SDS011;37248;59.350;18.050;2022-10-16T03:14:03;2.50;;;2.10;;
51184;SDS011;37248;59.350;18.050;2022-10-16T03:16:28;2.10;;;1.90;;
51184;SDS011;37248;59.350;18.050;2022-10-16T03:18:53;2.47;;;2.10;;
51184;SDS011;37248;59.350;18.050;2022-10-16T03:21:21;2.07;;;1.87;;
51184;SDS011;37248;59.350;18.050;2022-10-16T03:23:47;2.42;;;2.13;;
51184;SDS011;37248;59.350;18.050;2022-10-16T03:26:12;2.47;;;2.27;;
51184;SDS011;37248;59.350;18.050;2022-10-16T03:28:37;2.73;;;2.13;;
51184;SDS011;37248;59.350;18.050;2022-10-16T03:31:02;2.10;;;1.90;;
51184;SDS011;37248;59.350;18.050;2022-10-16T03:33:28;2.10;;;1.90;;
51184;SDS011;37248;59.350;18.050;2022-10-16T03:35:54;2.10;;;1.90;;
51184;SDS011;37248;59.350;18.050;2022-10-16T03:38:19;2.70;;;1.90;;
51184;SDS011;37248;59.350;18.050;2022-10-16T03:40:45;2.90;;;2.03;;
51184;SDS011;37248;59.350;18.050;2022-10-16T03:43:10;2.13;;;1.90;;
51184;SDS011;37248;59.350;18.050;2022-10-16T03:45:35;2.23;;;2.03;;
51184;SDS011;37248;59.350;18.050;2022-10-16T03:48:01;2.30;;;1.70;;
51184;SDS011;37248;59.350;18.050;2022-10-16T03:50:28;2.37;;;2.00;;
51184;SDS011;37248;59.350;18.050;2022-10-16T03:52:53;1.93;;;1.73;;
51184;SDS011;37248;59.350;18.050;2022-10-16T03:55:18;2.40;;;1.90;;
51184;SDS011;37248;59.350;18.050;2022-10-16T03:57:44;2.13;;;1.70;;
51184;SDS011;37248;59.350;18.050;2022-10-16T04:00:09;2.15;;;1.95;;
51184;SDS011;37248;59.350;18.050;2022-10-16T04:02:35;1.85;;;1.60;;
51184;SDS011;37248;59.350;18.050;2022-10-16T04:05:00;2.30;;;2.10;;
51184;SDS011;37248;59.350;18.050;2022-10-16T04:07:25;2.07;;;1.87;;
51184;SDS011;37248;59.350;18.050;2022-10-16T04:09:51;2.40;;;1.93;;
51184;SDS011;37248;59.350;18.050;2022-10-16T04:12:17;2.10;;;1.80;;
51184;SDS011;37248;59.350;18.050;2022-10-16T04:14:42;2.10;;;1.70;;
51184;SDS011;37248;59.350;18.050;2022-10-16T04:17:08;1.87;;;1.70;;
51184;SDS011;37248;59.350;18.050;2022-10-16T04:19:33;1.63;;;1.53;;
51184;SDS011;37248;59.350;18.050;2022-10-16T04:22:01;2.40;;;1.80;;
51184;SDS011;37248;59.350;18.050;2022-10-16T04:24:26;2.10;;;1.80;;
51184;SDS011;37248;59.350;18.050;2022-10-16T04:26:52;2.00;;;1.50;;
51184;SDS011;37248;59.350;18.050;2022-10-16T04:29:17;1.80;;;1.60;;
51184;SDS011;37248;59.350;18.050;2022-10-16T04:31:42;1.70;;;1.57;;
51184;SDS011;37248;59.350;18.050;2022-10-16T04:34:07;2.00;;;1.70;;
51184;SDS011;37248;59.350;18.050;2022-10-16T04:36:32;2.00;;;1.70;;
51184;SDS011;37248;59.350;18.050;2022-10-16T04:38:58;1.77;;;1.57;;
51184;SDS011;37248;59.350;18.050;2022-10-16T04:41:24;1.45;;;1.35;;
51184;SDS011;37248;59.350;18.050;2022-10-16T04:43:49;1.37;;;1.27;;
51184;SDS011;37248;59.350;18.050;2022-10-16T04:46:14;1.70;;;1.60;;
51184;SDS011;37248;59.350;18.050;2022-10-16T04:48:39;1.90;;;1.53;;
51184;SDS011;37248;59.350;18.050;2022-10-16T04:51:07;2.00;;;1.67;;
51184;SDS011;37248;59.350;18.050;2022-10-16T04:53:33;2.03;;;1.63;;
51184;SDS011;37248;59.350;18.050;2022-10-16T04:55:59;1.73;;;1.63;;
51184;SDS011;37248;59.350;18.050;2022-10-16T04:58:24;1.60;;;1.40;;
51184;SDS011;37248;59.350;18.050;2022-10-16T05:00:49;2.37;;;1.47;;
51184;SDS011;37248;59.350;18.050;2022-10-16T05:03:18;1.58;;;1.40;;
51184;SDS011;37248;59.350;18.050;2022-10-16T05:05:44;2.40;;;1.40;;
51184;SDS011;37248;59.350;18.050;2022-10-16T05:08:10;1.70;;;1.40;;
51184;SDS011;37248;59.350;18.050;2022-10-16T05:10:35;2.43;;;1.60;;
51184;SDS011;37248;59.350;18.050;2022-10-16T05:13:00;1.57;;;1.47;;
51184;SDS011;37248;59.350;18.050;2022-10-16T05:15:28;1.43;;;1.33;;
51184;SDS011;37248;59.350;18.050;2022-10-16T05:17:54;1.48;;;1.30;;
51184;SDS011;37248;59.350;18.050;2022-10-16T05:20:20;2.20;;;1.65;;
51184;SDS011;37248;59.350;18.050;2022-10-16T05:22:45;2.15;;;1.40;;
51184;SDS011;37248;59.350;18.050;2022-10-16T05:25:11;1.40;;;1.30;;
51184;SDS011;37248;59.350;18.050;2022-10-16T05:27:36;1.40;;;1.30;;
51184;SDS011;37248;59.350;18.050;2022-10-16T05:30:02;1.80;;;1.20;;
51184;SDS011;37248;59.350;18.050;2022-10-16T05:32:27;1.60;;;1.40;;
51184;SDS011;37248;59.350;18.050;2022-10-16T05:34:52;2.37;;;1.50;;
51184;SDS011;37248;59.350;18.050;2022-10-16T05:37:20;1.63;;;1.40;;
51184;SDS011;37248;59.350;18.050;2022-10-16T05:39:45;1.58;;;1.27;;
51184;SDS011;37248;59.350;18.050;2022-10-16T05:42:11;1.50;;;1.23;;
51184;SDS011;37248;59.350;18.050;2022-10-16T05:44:36;1.80;;;1.40;;
51184;SDS011;37248;59.350;18.050;2022-10-16T05:47:01;1.57;;;1.37;;
51184;SDS011;37248;59.350;18.050;2022-10-16T05:49:27;1.60;;;1.40;;
51184;SDS011;37248;59.350;18.050;2022-10-16T05:51:52;1.60;;;1.40;;
51184;SDS011;37248;59.350;18.050;2022-10-16T05:54:17;1.50;;;1.17;;
51184;SDS011;37248;59.350;18.050;2022-10-16T05:56:42;2.00;;;1.10;;
51184;SDS011;37248;59.350;18.050;2022-10-16T05:59:08;1.40;;;1.30;;
51184;SDS011;37248;59.350;18.050;2022-10-16T06:01:33;1.83;;;1.30;;
51184;SDS011;37248;59.350;18.050;2022-10-16T06:03:59;1.63;;;1.10;;
51184;SDS011;37248;59.350;18.050;2022-10-16T06:06:26;1.50;;;1.20;;
51184;SDS011;37248;59.350;18.050;2022-10-16T06:08:52;1.50;;;1.30;;
51184;SDS011;37248;59.350;18.050;2022-10-16T06:11:18;1.38;;;1.27;;
51184;SDS011;37248;59.350;18.050;2022-10-16T06:13:44;1.50;;;1.30;;
51184;SDS011;37248;59.350;18.050;2022-10-16T06:16:11;1.40;;;1.20;;
51184;SDS011;37248;59.350;18.050;2022-10-16T06:18:39;1.50;;;1.00;;
51184;SDS011;37248;59.350;18.050;2022-10-16T06:21:08;1.40;;;1.00;;
51184;SDS011;37248;59.350;18.050;2022-10-16T06:23:34;1.35;;;1.02;;
51184;SDS011;37248;59.350;18.050;2022-10-16T06:26:10;2.37;;;1.17;;
51184;SDS011;37248;59.350;18.050;2022-10-16T06:28:36;1.60;;;1.30;;
51184;SDS011;37248;59.350;18.050;2022-10-16T06:31:02;1.27;;;1.00;;
51184;SDS011;37248;59.350;18.050;2022-10-16T06:33:28;2.30;;;1.42;;
51184;SDS011;37248;59.350;18.050;2022-10-16T06:35:59;1.30;;;1.03;;
51184;SDS011;37248;59.350;18.050;2022-10-16T06:38:25;1.90;;;1.30;;
51184;SDS011;37248;59.350;18.050;2022-10-16T06:40:50;1.60;;;0.90;;
51184;SDS011;37248;59.350;18.050;2022-10-16T06:43:15;1.20;;;1.10;;
51184;SDS011;37248;59.350;18.050;2022-10-16T06:45:41;1.67;;;1.20;;
51184;SDS011;37248;59.350;18.050;2022-10-16T06:48:06;1.30;;;0.90;;
51184;SDS011;37248;59.350;18.050;2022-10-16T06:50:31;1.43;;;1.00;;
51184;SDS011;37248;59.350;18.050;2022-10-16T06:52:56;1.65;;;1.10;;
51184;SDS011;37248;59.350;18.050;2022-10-16T06:55:22;1.20;;;0.93;;
51184;SDS011;37248;59.350;18.050;2022-10-16T06:57:47;1.10;;;1.00;;
51184;SDS011;37248;59.350;18.050;2022-10-16T07:00:13;1.30;;;1.00;;
51184;SDS011;37248;59.350;18.050;2022-10-16T07:02:39;1.55;;;1.02;;
51184;SDS011;37248;59.350;18.050;2022-10-16T07:05:04;1.23;;;0.93;;
51184;SDS011;37248;59.350;18.050;2022-10-16T07:07:30;1.30;;;1.00;;
51184;SDS011;37248;59.350;18.050;2022-10-16T07:09:55;1.47;;;0.90;;
51184;SDS011;37248;59.350;18.050;2022-10-16T07:12:21;1.10;;;0.90;;
51184;SDS011;37248;59.350;18.050;2022-10-16T07:14:46;1.43;;;0.83;;
51184;SDS011;37248;59.350;18.050;2022-10-16T07:17:11;1.47;;;1.13;;
51184;SDS011;37248;59.350;18.050;2022-10-16T07:19:36;1.17;;;1.08;;
51184;SDS011;37248;59.350;18.050;2022-10-16T07:22:02;2.33;;;1.07;;
51184;SDS011;37248;59.350;18.050;2022-10-16T07:24:31;1.17;;;0.80;;
51184;SDS011;37248;59.350;18.050;2022-10-16T07:26:56;1.30;;;1.00;;
51184;SDS011;37248;59.350;18.050;2022-10-16T07:29:21;1.60;;;1.00;;
51184;SDS011;37248;59.350;18.050;2022-10-16T07:31:47;1.30;;;0.90;;
51184;SDS011;37248;59.350;18.050;2022-10-16T07:34:14;1.38;;;1.00;;
51184;SDS011;37248;59.350;18.050;2022-10-16T07:36:39;1.25;;;1.02;;
51184;SDS011;37248;59.350;18.050;2022-10-16T07:39:04;1.03;;;0.93;;
51184;SDS011;37248;59.350;18.050;2022-10-16T07:41:30;1.70;;;1.00;;
51184;SDS011;37248;59.350;18.050;2022-10-16T07:43:57;1.45;;;0.90;;
51184;SDS011;37248;59.350;18.050;2022-10-16T07:46:28;0.93;;;0.82;;
51184;SDS011;37248;59.350;18.050;2022-10-16T07:48:53;1.85;;;0.80;;
51184;SDS011;37248;59.350;18.050;2022-10-16T07:51:19;1.10;;;0.90;;
51184;SDS011;37248;59.350;18.050;2022-10-16T07:53:46;1.17;;;0.88;;
51184;SDS011;37248;59.350;18.050;2022-10-16T07:56:12;1.40;;;1.00;;
51184;SDS011;37248;59.350;18.050;2022-10-16T07:58:37;1.30;;;0.90;;
51184;SDS011;37248;59.350;18.050;2022-10-16T08:01:03;1.03;;;0.83;;
51184;SDS011;37248;59.350;18.050;2022-10-16T08:03:29;1.33;;;1.00;;
51184;SDS011;37248;59.350;18.050;2022-10-16T08:05:56;0.90;;;0.80;;
51184;SDS011;37248;59.350;18.050;2022-10-16T08:08:21;1.55;;;0.85;;
51184;SDS011;37248;59.350;18.050;2022-10-16T08:10:46;1.30;;;1.00;;
51184;SDS011;37248;59.350;18.050;2022-10-16T08:13:12;0.80;;;0.77;;
51184;SDS011;37248;59.350;18.050;2022-10-16T08:15:40;1.30;;;1.00;;
51184;SDS011;37248;59.350;18.050;2022-10-16T08:18:05;1.45;;;0.93;;
51184;SDS011;37248;59.350;18.050;2022-10-16T08:20:31;1.23;;;0.90;;
51184;SDS011;37248;59.350;18.050;2022-10-16T08:22:57;1.40;;;1.00;;
51184;SDS011;37248;59.350;18.050;2022-10-16T08:25:22;1.13;;;0.83;;
51184;SDS011;37248;59.350;18.050;2022-10-16T08:27:48;1.20;;;0.80;;
51184;SDS011;37248;59.350;18.050;2022-10-16T08:30:14;0.83;;;0.70;;
51184;SDS011;37248;59.350;18.050;2022-10-16T08:32:40;1.23;;;0.80;;
51184;SDS011;37248;59.350;18.050;2022-10-16T08:35:07;1.10;;;0.77;;
51184;SDS011;37248;59.350;18.050;2022-10-16T08:37:33;0.80;;;0.70;;
51184;SDS011;37248;59.350;18.050;2022-10-16T08:39:58;1.30;;;0.90;;
51184;SDS011;37248;59.350;18.050;2022-10-16T08:42:29;0.97;;;0.80;;
51184;SDS011;37248;59.350;18.050;2022-10-16T08:45:08;1.10;;;0.80;;
51184;SDS011;37248;59.350;18.050;2022-10-16T08:50:12;1.17;;;0.90;;
51184;SDS011;37248;59.350;18.050;2022-10-16T08:52:41;1.20;;;0.90;;
51184;SDS011;37248;59.350;18.050;2022-10-16T08:55:16;0.80;;;0.70;;
51184;SDS011;37248;59.350;18.050;2022-10-16T08:57:47;1.10;;;0.80;;
51184;SDS011;37248;59.350;18.050;2022-10-16T09:00:13;0.90;;;0.70;;
51184;SDS011;37248;59.350;18.050;2022-10-16T09:02:39;1.02;;;0.90;;
51184;SDS011;37248;59.350;18.050;2022-10-16T09:07:37;1.60;;;0.90;;
51184;SDS011;37248;59.350;18.050;2022-10-16T09:12:37;1.53;;;0.70;;
51184;SDS011;37248;59.350;18.050;2022-10-16T09:17:53;0.73;;;0.63;;
51184;SDS011;37248;59.350;18.050;2022-10-16T09:22:48;0.98;;;0.80;;
51184;SDS011;37248;59.350;18.050;2022-10-16T09:25:17;0.95;;;0.75;;
51184;SDS011;37248;59.350;18.050;2022-10-16T09:27:45;1.52;;;0.85;;
51184;SDS011;37248;59.350;18.050;2022-10-16T09:30:12;0.90;;;0.70;;
51184;SDS011;37248;59.350;18.050;2022-10-16T09:32:38;0.90;;;0.80;;
51184;SDS011;37248;59.350;18.050;2022-10-16T09:35:04;1.52;;;0.60;;
51184;SDS011;37248;59.350;18.050;2022-10-16T09:37:35;1.02;;;0.70;;
51184;SDS011;37248;59.350;18.050;2022-10-16T09:40:00;0.70;;;0.60;;
51184;SDS011;37248;59.350;18.050;2022-10-16T09:42:32;1.10;;;0.80;;
51184;SDS011;37248;59.350;18.050;2022-10-16T09:44:59;1.17;;;0.90;;
51184;SDS011;37248;59.350;18.050;2022-10-16T09:47:28;1.00;;;0.60;;
51184;SDS011;37248;59.350;18.050;2022-10-16T09:49:57;0.90;;;0.80;;
51184;SDS011;37248;59.350;18.050;2022-10-16T09:52:25;1.60;;;0.80;;
51184;SDS011;37248;59.350;18.050;2022-10-16T09:57:16;1.80;;;0.80;;
51184;SDS011;37248;59.350;18.050;2022-10-16T10:00:16;1.33;;;0.60;;
51184;SDS011;37248;59.350;18.050;2022-10-16T10:02:36;1.00;;;0.80;;
51184;SDS011;37248;59.350;18.050;2022-10-16T10:05:04;0.90;;;0.70;;
51184;SDS011;37248;59.350;18.050;2022-10-16T10:07:33;1.15;;;0.60;;
51184;SDS011;37248;59.350;18.050;2022-10-16T10:10:01;1.07;;;0.70;;
51184;SDS011;37248;59.350;18.050;2022-10-16T10:12:28;0.80;;;0.67;;
51184;SDS011;37248;59.350;18.050;2022-10-16T10:14:56;0.85;;;0.70;;
51184;SDS011;37248;59.350;18.050;2022-10-16T10:17:24;1.35;;;0.75;;
51184;SDS011;37248;59.350;18.050;2022-10-16T10:20:32;1.25;;;0.82;;
51184;SDS011;37248;59.350;18.050;2022-10-16T10:41:09;1.00;;;0.70;;
51184;SDS011;37248;59.350;18.050;2022-10-16T10:46:09;1.17;;;0.70;;
51184;SDS011;37248;59.350;18.050;2022-10-16T10:51:21;1.10;;;0.70;;
51184;SDS011;37248;59.350;18.050;2022-10-16T10:56:31;0.98;;;0.70;;
51184;SDS011;37248;59.350;18.050;2022-10-16T11:01:56;0.63;;;0.50;;
51184;SDS011;37248;59.350;18.050;2022-10-16T11:06:59;1.10;;;0.70;;
51184;SDS011;37248;59.350;18.050;2022-10-16T11:09:47;0.90;;;0.67;;
51184;SDS011;37248;59.350;18.050;2022-10-16T11:12:22;1.13;;;0.73;;
51184;SDS011;37248;59.350;18.050;2022-10-16T11:17:19;1.50;;;0.70;;
51184;SDS011;37248;59.350;18.050;2022-10-16T11:20:05;0.90;;;0.60;;
51184;SDS011;37248;59.350;18.050;2022-10-16T11:22:38;0.90;;;0.73;;
51184;SDS011;37248;59.350;18.050;2022-10-16T11:27:36;1.02;;;0.70;;
51184;SDS011;37248;59.350;18.050;2022-10-16T11:30:03;0.85;;;0.60;;
51184;SDS011;37248;59.350;18.050;2022-10-16T11:32:42;1.40;;;0.70;;
51184;SDS011;37248;59.350;18.050;2022-10-16T11:35:20;1.50;;;0.90;;
51184;SDS011;37248;59.350;18.050;2022-10-16T11:37:48;0.90;;;0.70;;
51184;SDS011;37248;59.350;18.050;2022-10-16T11:40:23;1.50;;;0.70;;
51184;SDS011;37248;59.350;18.050;2022-10-16T11:43:11;0.82;;;0.60;;
51184;SDS011;37248;59.350;18.050;2022-10-16T11:45:42;0.98;;;0.60;;
51184;SDS011;37248;59.350;18.050;2022-10-16T11:51:02;1.83;;;0.70;;
51184;SDS011;37248;59.350;18.050;2022-10-16T11:55:58;0.90;;;0.50;;
51184;SDS011;37248;59.350;18.050;2022-10-16T11:58:41;0.70;;;0.60;;
51184;SDS011;37248;59.350;18.050;2022-10-16T12:01:30;1.30;;;0.70;;
51184;SDS011;37248;59.350;18.050;2022-10-16T12:09:29;1.20;;;0.70;;
51184;SDS011;37248;59.350;18.050;2022-10-16T12:11:55;1.13;;;0.65;;
51184;SDS011;37248;59.350;18.050;2022-10-16T12:19:17;1.60;;;0.80;;
51184;SDS011;37248;59.350;18.050;2022-10-16T12:21:43;1.90;;;0.80;;
51184;SDS011;37248;59.350;18.050;2022-10-16T12:26:53;1.73;;;0.88;;
51184;SDS011;37248;59.350;18.050;2022-10-16T12:32:04;1.65;;;0.77;;
51184;SDS011;37248;59.350;18.050;2022-10-16T12:34:32;1.33;;;0.63;;
51184;SDS011;37248;59.350;18.050;2022-10-16T12:37:34;1.98;;;0.70;;
51184;SDS011;37248;59.350;18.050;2022-10-16T12:39:53;0.90;;;0.70;;
51184;SDS011;37248;59.350;18.050;2022-10-16T12:42:21;1.13;;;0.73;;
51184;SDS011;37248;59.350;18.050;2022-10-16T12:44:46;0.80;;;0.50;;
51184;SDS011;37248;59.350;18.050;2022-10-16T12:49:53;1.40;;;0.70;;
51184;SDS011;37248;59.350;18.050;2022-10-16T12:52:25;0.68;;;0.50;;
51184;SDS011;37248;59.350;18.050;2022-10-16T12:54:51;1.42;;;0.73;;
51184;SDS011;37248;59.350;18.050;2022-10-16T12:59:59;1.40;;;0.70;;
51184;SDS011;37248;59.350;18.050;2022-10-16T13:07:35;1.37;;;0.80;;
51184;SDS011;37248;59.350;18.050;2022-10-16T13:20:02;1.03;;;0.60;;
51184;SDS011;37248;59.350;18.050;2022-10-16T13:22:46;1.23;;;0.60;;
51184;SDS011;37248;59.350;18.050;2022-10-16T13:26:16;0.95;;;0.73;;
51184;SDS011;37248;59.350;18.050;2022-10-16T13:28:10;1.17;;;0.50;;
51184;SDS011;37248;59.350;18.050;2022-10-16T13:30:40;0.90;;;0.60;;
51184;SDS011;37248;59.350;18.050;2022-10-16T13:35:37;1.02;;;0.65;;
51184;SDS011;37248;59.350;18.050;2022-10-16T13:40:53;1.17;;;0.70;;
51184;SDS011;37248;59.350;18.050;2022-10-16T13:43:19;2.17;;;0.70;;
51184;SDS011;37248;59.350;18.050;2022-10-16T13:45:52;1.80;;;0.63;;
51184;SDS011;37248;59.350;18.050;2022-10-16T13:48:18;0.98;;;0.60;;
51184;SDS011;37248;59.350;18.050;2022-10-16T13:50:43;1.40;;;0.60;;
51184;SDS011;37248;59.350;18.050;2022-10-16T13:53:14;1.27;;;0.70;;
51184;SDS011;37248;59.350;18.050;2022-10-16T13:55:39;1.93;;;0.80;;
51184;SDS011;37248;59.350;18.050;2022-10-16T13:58:07;1.33;;;0.83;;
51184;SDS011;37248;59.350;18.050;2022-10-16T14:00:33;1.58;;;0.70;;
51184;SDS011;37248;59.350;18.050;2022-10-16T14:03:01;1.10;;;0.60;;
51184;SDS011;37248;59.350;18.050;2022-10-16T14:05:27;1.60;;;0.50;;
51184;SDS011;37248;59.350;18.050;2022-10-16T14:07:52;1.50;;;0.70;;
51184;SDS011;37248;59.350;18.050;2022-10-16T14:10:28;1.10;;;0.70;;
51184;SDS011;37248;59.350;18.050;2022-10-16T14:12:58;1.73;;;0.93;;
51184;SDS011;37248;59.350;18.050;2022-10-16T14:15:25;2.15;;;0.90;;
51184;SDS011;37248;59.350;18.050;2022-10-16T14:17:50;1.37;;;0.70;;
51184;SDS011;37248;59.350;18.050;2022-10-16T14:20:16;1.75;;;0.90;;
51184;SDS011;37248;59.350;18.050;2022-10-16T14:22:42;1.33;;;0.90;;
51184;SDS011;37248;59.350;18.050;2022-10-16T14:27:55;1.35;;;0.70;;
51184;SDS011;37248;59.350;18.050;2022-10-16T14:30:21;1.48;;;0.80;;
51184;SDS011;37248;59.350;18.050;2022-10-16T14:33:06;2.10;;;1.00;;
51184;SDS011;37248;59.350;18.050;2022-10-16T14:35:43;1.30;;;1.00;;
51184;SDS011;37248;59.350;18.050;2022-10-16T14:38:16;1.77;;;1.13;;
51184;SDS011;37248;59.350;18.050;2022-10-16T14:40:45;1.20;;;0.75;;
51184;SDS011;37248;59.350;18.050;2022-10-16T14:43:19;1.92;;;1.10;;
51184;SDS011;37248;59.350;18.050;2022-10-16T14:45:49;1.55;;;1.00;;
51184;SDS011;37248;59.350;18.050;2022-10-16T14:48:16;1.25;;;0.80;;
51184;SDS011;37248;59.350;18.050;2022-10-16T14:50:42;1.67;;;1.00;;
51184;SDS011;37248;59.350;18.050;2022-10-16T14:53:10;1.20;;;0.90;;
51184;SDS011;37248;59.350;18.050;2022-10-16T14:55:36;1.40;;;0.98;;
51184;SDS011;37248;59.350;18.050;2022-10-16T14:58:01;1.55;;;1.10;;
51184;SDS011;37248;59.350;18.050;2022-10-16T15:00:27;2.10;;;1.00;;
51184;SDS011;37248;59.350;18.050;2022-10-16T15:02:52;1.10;;;0.77;;
51184;SDS011;37248;59.350;18.050;2022-10-16T15:07:43;1.83;;;1.00;;
51184;SDS011;37248;59.350;18.050;2022-10-16T15:10:08;1.60;;;1.00;;
51184;SDS011;37248;59.350;18.050;2022-10-16T15:12:34;1.60;;;0.93;;
51184;SDS011;37248;59.350;18.050;2022-10-16T15:14:59;1.00;;;0.90;;
51184;SDS011;37248;59.350;18.050;2022-10-16T15:17:25;1.80;;;1.10;;
51184;SDS011;37248;59.350;18.050;2022-10-16T15:19:50;1.40;;;1.07;;
51184;SDS011;37248;59.350;18.050;2022-10-16T15:22:16;2.07;;;1.10;;
51184;SDS011;37248;59.350;18.050;2022-10-16T15:24:42;1.53;;;1.10;;
51184;SDS011;37248;59.350;18.050;2022-10-16T15:27:07;1.90;;;1.17;;
51184;SDS011;37248;59.350;18.050;2022-10-16T15:29:32;2.03;;;1.13;;
51184;SDS011;37248;59.350;18.050;2022-10-16T15:31:58;1.93;;;1.20;;
51184;SDS011;37248;59.350;18.050;2022-10-16T15:34:23;1.50;;;1.17;;
51184;SDS011;37248;59.350;18.050;2022-10-16T15:36:48;1.58;;;1.10;;
51184;SDS011;37248;59.350;18.050;2022-10-16T15:39:15;2.33;;;1.40;;
51184;SDS011;37248;59.350;18.050;2022-10-16T15:41:40;2.05;;;1.30;;
51184;SDS011;37248;59.350;18.050;2022-10-16T15:44:06;2.78;;;1.35;;
51184;SDS011;37248;59.350;18.050;2022-10-16T15:46:31;2.77;;;1.23;;
51184;SDS011;37248;59.350;18.050;2022-10-16T15:48:58;2.30;;;1.33;;
51184;SDS011;37248;59.350;18.050;2022-10-16T15:51:24;2.83;;;1.23;;
51184;SDS011;37248;59.350;18.050;2022-10-16T15:53:49;2.00;;;1.15;;
51184;SDS011;37248;59.350;18.050;2022-10-16T15:56:16;2.10;;;1.23;;
51184;SDS011;37248;59.350;18.050;2022-10-16T15:58:42;2.10;;;1.20;;
51184;SDS011;37248;59.350;18.050;2022-10-16T16:01:07;2.10;;;1.23;;
51184;SDS011;37248;59.350;18.050;2022-10-16T16:03:34;2.05;;;0.95;;
51184;SDS011;37248;59.350;18.050;2022-10-16T16:06:04;1.88;;;1.10;;
51184;SDS011;37248;59.350;18.050;2022-10-16T16:08:29;2.58;;;1.02;;
51184;SDS011;37248;59.350;18.050;2022-10-16T16:11:02;2.10;;;1.00;;
51184;SDS011;37248;59.350;18.050;2022-10-16T16:13:27;1.50;;;1.00;;
51184;SDS011;37248;59.350;18.050;2022-10-16T16:15:52;1.87;;;0.90;;
51184;SDS011;37248;59.350;18.050;2022-10-16T16:18:18;1.57;;;0.97;;
51184;SDS011;37248;59.350;18.050;2022-10-16T16:20:43;1.38;;;0.90;;
51184;SDS011;37248;59.350;18.050;2022-10-16T16:23:09;1.70;;;1.00;;
51184;SDS011;37248;59.350;18.050;2022-10-16T16:25:34;1.90;;;1.00;;
51184;SDS011;37248;59.350;18.050;2022-10-16T16:27:59;2.30;;;1.20;;
51184;SDS011;37248;59.350;18.050;2022-10-16T16:30:24;1.63;;;0.90;;
51184;SDS011;37248;59.350;18.050;2022-10-16T16:32:50;1.70;;;1.00;;
51184;SDS011;37248;59.350;18.050;2022-10-16T16:35:15;2.00;;;1.00;;
51184;SDS011;37248;59.350;18.050;2022-10-16T16:37:40;2.28;;;0.98;;
51184;SDS011;37248;59.350;18.050;2022-10-16T16:40:05;1.57;;;0.97;;